createdAt,value
2023-05-12T00:00:25.826Z,13.10
2023-05-12T00:01:27.425Z,13.10
2023-05-12T00:02:29.206Z,13.10
2023-05-12T00:03:30.922Z,13.10
2023-05-12T00:04:32.613Z,13.10
2023-05-12T00:05:34.266Z,13.10
2023-05-12T00:06:35.846Z,13.10
2023-05-12T00:07:37.473Z,13.10
2023-05-12T00:08:39.088Z,13.10
2023-05-12T00:09:41.808Z,13.10
2023-05-12T00:10:43.460Z,13.10
2023-05-12T00:11:45.070Z,13.10
2023-05-12T00:12:47.621Z,13.10
2023-05-12T00:13:49.385Z,13.00
2023-05-12T00:14:51.098Z,13.10
2023-05-12T00:15:54.743Z,13.00
2023-05-12T00:16:56.512Z,13.10
2023-05-12T00:17:58.486Z,13.00
2023-05-12T00:19:00.541Z,13.10
2023-05-12T00:20:03.589Z,13.10
2023-05-12T00:21:05.511Z,13.10
2023-05-12T00:22:07.064Z,13.10
2023-05-12T00:23:08.900Z,13.10
2023-05-12T00:24:10.462Z,13.10
2023-05-12T00:25:12.144Z,13.10
2023-05-12T00:26:13.731Z,13.20
2023-05-12T00:27:15.455Z,13.10
2023-05-12T00:28:18.504Z,13.10
2023-05-12T00:29:20.393Z,13.20
2023-05-12T00:30:22.371Z,13.10
2023-05-12T00:31:24.165Z,13.10
2023-05-12T00:32:27.357Z,13.10
2023-05-12T00:33:29.198Z,13.10
2023-05-12T00:34:30.811Z,13.00
2023-05-12T00:35:32.417Z,13.00
2023-05-12T00:36:34.014Z,13.00
2023-05-12T00:37:35.596Z,12.90
2023-05-12T00:38:37.490Z,12.90
2023-05-12T00:39:39.122Z,12.90
2023-05-12T00:40:41.299Z,12.90
2023-05-12T00:41:42.977Z,12.90
2023-05-12T00:42:44.608Z,12.90
2023-05-12T00:43:46.362Z,13.00
2023-05-12T00:44:47.976Z,13.00
2023-05-12T00:45:49.810Z,12.90
2023-05-12T00:46:52.550Z,12.90
2023-05-12T00:47:54.315Z,12.90
2023-05-12T00:48:56.035Z,12.90
2023-05-12T00:49:58.224Z,12.90
2023-05-12T00:51:00.787Z,13.00
2023-05-12T00:52:02.903Z,12.90
2023-05-12T00:53:06.026Z,13.00
2023-05-12T00:54:08.176Z,12.90
2023-05-12T00:55:10.025Z,12.90
2023-05-12T00:56:13.379Z,12.90
2023-05-12T00:57:15.050Z,12.80
2023-05-12T00:58:16.680Z,12.90
2023-05-12T00:59:18.409Z,12.90
2023-05-12T01:00:20.434Z,12.80
2023-05-12T01:01:22.377Z,12.80
2023-05-12T01:02:24.208Z,12.80
2023-05-12T01:03:26.129Z,12.80
2023-05-12T01:04:29.492Z,12.80
2023-05-12T01:05:40.570Z,12.70
2023-05-12T01:06:45.355Z,12.80
2023-05-12T01:07:47.210Z,12.80
2023-05-12T01:08:49.158Z,12.70
2023-05-12T01:09:55.641Z,12.70
2023-05-12T01:10:57.247Z,12.60
2023-05-12T01:11:58.820Z,12.60
2023-05-12T01:13:00.398Z,12.60
2023-05-12T01:14:02.107Z,12.60
2023-05-12T01:15:04.106Z,12.60
2023-05-12T01:16:09.104Z,12.60
2023-05-12T01:17:15.502Z,12.60
2023-05-12T01:18:19.953Z,12.50
2023-05-12T01:19:47.327Z,12.60
2023-05-12T01:20:50.274Z,12.60
2023-05-12T01:21:52.466Z,12.60
2023-05-12T01:22:55.336Z,12.60
2023-05-12T01:23:59.150Z,12.60
2023-05-12T01:25:04.992Z,12.60
2023-05-12T01:26:10.365Z,12.60
2023-05-12T01:27:13.477Z,12.70
2023-05-12T01:28:16.405Z,12.70
2023-05-12T01:29:18.975Z,12.70
2023-05-12T01:30:23.053Z,12.60
2023-05-12T01:31:25.688Z,12.60
2023-05-12T01:32:27.503Z,12.60
2023-05-12T01:33:29.290Z,12.60
2023-05-12T01:34:32.113Z,12.60
2023-05-12T01:35:33.690Z,12.50
2023-05-12T01:36:35.632Z,12.40
2023-05-12T01:37:37.422Z,12.40
2023-05-12T01:38:39.187Z,12.40
2023-05-12T01:39:40.887Z,12.40
2023-05-12T01:40:42.464Z,12.40
2023-05-12T01:41:44.059Z,12.40
2023-05-12T01:42:45.697Z,12.50
2023-05-12T01:43:47.290Z,12.50
2023-05-12T01:44:48.915Z,12.50
2023-05-12T01:45:50.587Z,12.50
2023-05-12T01:46:52.496Z,12.50
2023-05-12T01:47:54.146Z,12.50
2023-05-12T01:48:55.739Z,12.50
2023-05-12T01:49:57.300Z,12.50
2023-05-12T01:51:01.840Z,12.50
2023-05-12T01:52:03.921Z,12.50
2023-05-12T01:53:05.696Z,12.50
2023-05-12T01:54:07.324Z,12.50
2023-05-12T01:55:09.088Z,12.50
2023-05-12T01:56:10.701Z,12.50
2023-05-12T01:57:12.317Z,12.50
2023-05-12T01:58:14.728Z,12.50
2023-05-12T01:59:16.339Z,12.40
2023-05-12T02:00:18.481Z,12.40
2023-05-12T02:01:20.273Z,12.40
2023-05-12T02:02:21.920Z,12.40
2023-05-12T02:03:23.606Z,12.40
2023-05-12T02:04:25.291Z,12.40
2023-05-12T02:05:26.890Z,12.50
2023-05-12T02:06:28.480Z,12.50
2023-05-12T02:07:30.203Z,12.40
2023-05-12T02:08:31.806Z,12.50
2023-05-12T02:09:33.423Z,12.40
2023-05-12T02:10:35.019Z,12.50
2023-05-12T02:11:37.413Z,12.40
2023-05-12T02:12:39.131Z,12.40
2023-05-12T02:13:40.944Z,12.50
2023-05-12T02:14:42.546Z,12.50
2023-05-12T02:15:44.180Z,12.40
2023-05-12T02:16:47.225Z,12.50
2023-05-12T02:17:50.454Z,12.40
2023-05-12T02:18:52.189Z,12.40
2023-05-12T02:19:53.770Z,12.50
2023-05-12T02:20:55.524Z,12.50
2023-05-12T02:21:57.117Z,12.50
2023-05-12T02:22:58.735Z,12.50
2023-05-12T02:24:00.315Z,12.40
2023-05-12T02:25:01.986Z,12.50
2023-05-12T02:26:03.576Z,12.40
2023-05-12T02:27:05.474Z,12.50
2023-05-12T02:28:10.855Z,12.40
2023-05-12T02:29:12.559Z,12.30
2023-05-12T02:30:15.133Z,12.30
2023-05-12T02:31:16.949Z,12.30
2023-05-12T02:32:18.511Z,12.20
2023-05-12T02:33:21.822Z,12.20
2023-05-12T02:34:23.413Z,12.20
2023-05-12T02:35:24.993Z,12.20
2023-05-12T02:36:27.003Z,12.20
2023-05-12T02:37:28.590Z,12.20
2023-05-12T02:38:30.215Z,12.20
2023-05-12T02:39:31.795Z,12.30
2023-05-12T02:40:33.359Z,12.30
2023-05-12T02:41:34.988Z,12.30
2023-05-12T02:42:38.311Z,12.40
2023-05-12T02:43:40.050Z,12.30
2023-05-12T02:44:41.659Z,12.30
2023-05-12T02:45:43.286Z,12.30
2023-05-12T02:46:44.905Z,12.30
2023-05-12T02:47:46.543Z,12.20
2023-05-12T02:48:48.167Z,12.20
2023-05-12T02:49:49.815Z,12.20
2023-05-12T02:50:51.423Z,12.30
2023-05-12T02:51:53.068Z,12.30
2023-05-12T02:52:54.629Z,12.40
2023-05-12T02:53:56.262Z,12.40
2023-05-12T02:54:57.928Z,12.40
2023-05-12T02:55:59.540Z,12.30
2023-05-12T02:57:05.547Z,12.30
2023-05-12T02:58:07.362Z,12.30
2023-05-12T02:59:08.981Z,12.30
2023-05-12T03:00:11.106Z,12.40
2023-05-12T03:01:12.789Z,12.40
2023-05-12T03:02:14.471Z,12.40
2023-05-12T03:03:16.188Z,12.40
2023-05-12T03:04:17.861Z,12.40
2023-05-12T03:05:19.546Z,12.40
2023-05-12T03:06:21.239Z,12.40
2023-05-12T03:07:22.968Z,12.50
2023-05-12T03:08:24.639Z,12.50
2023-05-12T03:09:26.269Z,12.50
2023-05-12T03:10:27.931Z,12.40
2023-05-12T03:11:29.576Z,12.50
2023-05-12T03:12:31.381Z,12.50
2023-05-12T03:13:33.676Z,12.40
2023-05-12T03:14:35.338Z,12.50
2023-05-12T03:15:37.034Z,12.50
2023-05-12T03:16:38.653Z,12.40
2023-05-12T03:17:40.425Z,12.50
2023-05-12T03:18:42.142Z,12.40
2023-05-12T03:19:43.793Z,12.40
2023-05-12T03:20:45.364Z,12.50
2023-05-12T03:21:47.045Z,12.50
2023-05-12T03:22:48.714Z,12.50
2023-05-12T03:23:50.292Z,12.40
2023-05-12T03:24:52.082Z,12.40
2023-05-12T03:25:53.641Z,12.40
2023-05-12T03:26:55.277Z,12.40
2023-05-12T03:27:56.884Z,12.40
2023-05-12T03:28:58.430Z,12.40
2023-05-12T03:30:01.022Z,12.40
2023-05-12T03:31:02.676Z,12.40
2023-05-12T03:32:04.575Z,12.40
2023-05-12T03:33:06.134Z,12.40
2023-05-12T03:34:07.704Z,12.40
2023-05-12T03:35:09.498Z,12.40
2023-05-12T03:36:11.262Z,12.40
2023-05-12T03:37:12.845Z,12.30
2023-05-12T03:38:14.483Z,12.40
2023-05-12T03:39:16.313Z,12.40
2023-05-12T03:40:18.953Z,12.40
2023-05-12T03:41:21.970Z,12.40
2023-05-12T03:42:24.084Z,12.40
2023-05-12T03:43:25.714Z,12.40
2023-05-12T03:44:27.264Z,12.40
2023-05-12T03:45:28.918Z,12.40
2023-05-12T03:46:30.591Z,12.40
2023-05-12T03:47:32.371Z,12.40
2023-05-12T03:48:34.223Z,12.30
2023-05-12T03:49:35.795Z,12.30
2023-05-12T03:50:37.376Z,12.30
2023-05-12T03:51:39.000Z,12.30
2023-05-12T03:52:41.390Z,12.30
2023-05-12T03:53:46.459Z,12.30
2023-05-12T03:54:48.049Z,12.30
2023-05-12T03:55:49.672Z,12.30
2023-05-12T03:56:53.224Z,12.40
2023-05-12T03:57:54.779Z,12.40
2023-05-12T03:58:57.280Z,12.30
2023-05-12T03:59:58.849Z,12.30
2023-05-12T04:01:01.758Z,12.30
2023-05-12T04:02:04.093Z,12.30
2023-05-12T04:03:05.928Z,12.40
2023-05-12T04:04:07.556Z,12.40
2023-05-12T04:05:10.012Z,12.40
2023-05-12T04:06:12.166Z,12.30
2023-05-12T04:07:13.728Z,12.40
2023-05-12T04:08:15.356Z,12.30
2023-05-12T04:09:17.057Z,12.30
2023-05-12T04:10:18.928Z,12.30
2023-05-12T04:11:20.737Z,12.30
2023-05-12T04:12:22.368Z,12.30
2023-05-12T04:13:28.829Z,12.30
2023-05-12T04:14:41.591Z,12.30
2023-05-12T04:15:44.253Z,12.30
2023-05-12T04:16:46.013Z,12.40
2023-05-12T04:17:47.813Z,12.30
2023-05-12T04:18:49.670Z,12.30
2023-05-12T04:19:52.616Z,12.40
2023-05-12T04:20:55.048Z,12.30
2023-05-12T04:21:56.641Z,12.30
2023-05-12T04:22:58.215Z,12.30
2023-05-12T04:23:59.833Z,12.30
2023-05-12T04:25:01.388Z,12.30
2023-05-12T04:26:06.363Z,12.40
2023-05-12T04:27:08.045Z,12.40
2023-05-12T04:28:12.076Z,12.30
2023-05-12T04:29:13.943Z,12.30
2023-05-12T04:30:16.621Z,12.30
2023-05-12T04:31:18.216Z,12.30
2023-05-12T04:32:19.919Z,12.30
2023-05-12T04:33:21.567Z,12.40
2023-05-12T04:34:23.165Z,12.40
2023-05-12T04:35:24.932Z,12.40
2023-05-12T04:36:26.480Z,12.40
2023-05-12T04:37:28.083Z,12.40
2023-05-12T04:38:29.668Z,12.40
2023-05-12T04:39:31.262Z,12.40
2023-05-12T04:40:34.908Z,12.40
2023-05-12T04:41:36.918Z,12.50
2023-05-12T04:42:38.583Z,12.50
2023-05-12T04:44:46.487Z,12.60
2023-05-12T04:45:50.652Z,12.60
2023-05-12T04:46:56.003Z,12.60
2023-05-12T04:47:57.671Z,12.50
2023-05-12T04:48:59.268Z,12.60
2023-05-12T04:50:01.075Z,12.60
2023-05-12T04:51:02.626Z,12.60
2023-05-12T04:52:05.463Z,12.60
2023-05-12T04:53:07.138Z,12.60
2023-05-12T04:54:11.783Z,12.60
2023-05-12T04:55:13.378Z,12.60
2023-05-12T04:56:14.920Z,12.60
2023-05-12T04:57:16.586Z,12.60
2023-05-12T04:58:18.421Z,12.60
2023-05-12T04:59:20.016Z,12.50
2023-05-12T05:00:21.700Z,12.50
2023-05-12T05:01:23.383Z,12.50
2023-05-12T05:02:28.481Z,12.50
2023-05-12T05:03:30.289Z,12.50
2023-05-12T05:04:31.957Z,12.50
2023-05-12T05:05:33.531Z,12.60
2023-05-12T05:06:37.911Z,12.50
2023-05-12T05:07:39.550Z,12.40
2023-05-12T05:08:41.726Z,12.40
2023-05-12T05:09:43.273Z,12.50
2023-05-12T05:10:44.892Z,12.60
2023-05-12T05:11:46.586Z,12.70
2023-05-12T05:12:48.156Z,12.70
2023-05-12T05:13:49.764Z,12.70
2023-05-12T05:14:52.037Z,12.70
2023-05-12T05:15:54.707Z,12.80
2023-05-12T05:16:56.338Z,12.70
2023-05-12T05:18:00.061Z,12.70
2023-05-12T05:19:06.417Z,12.70
2023-05-12T05:20:11.744Z,12.60
2023-05-12T05:21:14.450Z,12.60
2023-05-12T05:22:16.694Z,12.70
2023-05-12T05:23:18.329Z,12.70
2023-05-12T05:24:20.064Z,12.70
2023-05-12T05:25:21.736Z,12.70
2023-05-12T05:26:23.387Z,12.60
2023-05-12T05:27:24.971Z,12.70
2023-05-12T05:28:26.620Z,12.70
2023-05-12T05:29:28.656Z,12.80
2023-05-12T05:30:30.361Z,12.80
2023-05-12T05:31:32.250Z,12.90
2023-05-12T05:32:36.052Z,12.90
2023-05-12T05:33:37.643Z,12.90
2023-05-12T05:34:39.344Z,12.90
2023-05-12T05:35:42.362Z,12.90
2023-05-12T05:36:44.257Z,12.90
2023-05-12T05:37:47.096Z,12.90
2023-05-12T05:38:48.721Z,12.90
2023-05-12T05:39:51.050Z,12.90
2023-05-12T05:40:54.029Z,12.90
2023-05-12T05:41:56.346Z,12.90
2023-05-12T05:42:58.010Z,13.00
2023-05-12T05:43:59.574Z,13.00
2023-05-12T05:45:01.376Z,13.10
2023-05-12T05:46:03.002Z,13.20
2023-05-12T05:47:04.906Z,13.20
2023-05-12T05:48:06.903Z,13.20
2023-05-12T05:49:08.572Z,13.20
2023-05-12T05:50:10.489Z,13.30
2023-05-12T05:51:12.162Z,13.30
2023-05-12T05:52:13.790Z,13.40
2023-05-12T05:53:15.563Z,13.40
2023-05-12T05:54:17.191Z,13.50
2023-05-12T05:55:19.395Z,13.50
2023-05-12T05:56:22.985Z,13.50
2023-05-12T05:57:27.748Z,13.60
2023-05-12T05:58:29.325Z,13.60
2023-05-12T05:59:31.030Z,13.60
2023-05-12T06:00:32.637Z,13.50
2023-05-12T06:01:34.282Z,13.60
2023-05-12T06:02:36.909Z,13.60
2023-05-12T06:03:38.654Z,13.50
2023-05-12T06:04:40.253Z,13.50
2023-05-12T06:05:43.094Z,13.50
2023-05-12T06:06:44.682Z,13.50
2023-05-12T06:07:46.240Z,13.50
2023-05-12T06:08:47.820Z,13.60
2023-05-12T06:09:49.397Z,13.70
2023-05-12T06:10:51.024Z,13.70
2023-05-12T06:11:52.571Z,13.70
2023-05-12T06:12:54.123Z,13.70
2023-05-12T06:13:55.717Z,13.70
2023-05-12T06:14:57.289Z,13.70
2023-05-12T06:15:58.897Z,13.60
2023-05-12T06:17:00.535Z,13.60
2023-05-12T06:18:02.186Z,13.70
2023-05-12T06:19:03.904Z,13.70
2023-05-12T06:20:06.634Z,13.80
2023-05-12T06:21:08.433Z,13.80
2023-05-12T06:22:10.149Z,13.90
2023-05-12T06:23:11.752Z,13.90
2023-05-12T06:24:13.321Z,13.90
2023-05-12T06:25:14.945Z,13.90
2023-05-12T06:26:16.619Z,13.90
2023-05-12T06:27:18.247Z,13.90
2023-05-12T06:28:19.845Z,13.90
2023-05-12T06:29:21.421Z,14.00
2023-05-12T06:30:23.720Z,14.10
2023-05-12T06:31:25.538Z,14.10
2023-05-12T06:32:27.264Z,14.10
2023-05-12T06:33:28.881Z,14.10
2023-05-12T06:34:30.488Z,14.20
2023-05-12T06:35:32.102Z,14.30
2023-05-12T06:36:33.687Z,14.30
2023-05-12T06:37:35.475Z,14.40
2023-05-12T06:38:37.034Z,14.40
2023-05-12T06:39:38.595Z,14.50
2023-05-12T06:40:40.202Z,14.50
2023-05-12T06:41:41.976Z,14.50
2023-05-12T06:42:44.274Z,14.40
2023-05-12T06:43:45.910Z,14.40
2023-05-12T06:44:47.487Z,14.40
2023-05-12T06:45:49.582Z,14.40
2023-05-12T06:46:51.211Z,14.40
2023-05-12T06:47:52.814Z,14.40
2023-05-12T06:48:55.615Z,14.40
2023-05-12T06:49:57.197Z,14.50
2023-05-12T06:50:58.893Z,14.60
2023-05-12T06:52:00.628Z,14.60
2023-05-12T06:53:02.592Z,14.60
2023-05-12T06:54:04.212Z,14.50
2023-05-12T06:55:07.044Z,14.60
2023-05-12T06:56:08.790Z,14.60
2023-05-12T06:57:10.873Z,14.70
2023-05-12T06:58:12.572Z,14.80
2023-05-12T06:59:14.216Z,14.80
2023-05-12T07:00:16.130Z,14.90
2023-05-12T07:01:18.223Z,15.00
2023-05-12T07:02:19.881Z,15.00
2023-05-12T07:03:21.883Z,14.90
2023-05-12T07:04:25.087Z,14.90
2023-05-12T07:05:28.107Z,15.00
2023-05-12T07:06:29.796Z,15.00
2023-05-12T07:07:31.806Z,15.00
2023-05-12T07:08:33.405Z,15.10
2023-05-12T07:09:35.014Z,15.10
2023-05-12T07:10:37.929Z,15.10
2023-05-12T07:11:39.670Z,15.10
2023-05-12T07:12:41.421Z,15.20
2023-05-12T07:13:43.324Z,15.20
2023-05-12T07:14:44.889Z,15.20
2023-05-12T07:15:46.538Z,15.10
2023-05-12T07:16:48.113Z,15.10
2023-05-12T07:17:49.879Z,15.20
2023-05-12T07:18:51.630Z,15.30
2023-05-12T07:19:53.223Z,15.30
2023-05-12T07:20:55.618Z,15.40
2023-05-12T07:21:58.560Z,15.50
2023-05-12T07:23:00.210Z,15.50
2023-05-12T07:24:01.894Z,15.50
2023-05-12T07:25:03.619Z,15.60
2023-05-12T07:26:06.656Z,15.60
2023-05-12T07:27:08.278Z,15.50
2023-05-12T07:28:09.894Z,15.60
2023-05-12T07:29:13.692Z,15.60
2023-05-12T07:30:16.315Z,15.70
2023-05-12T07:31:18.022Z,15.60
2023-05-12T07:32:19.619Z,15.70
2023-05-12T07:33:21.218Z,15.70
2023-05-12T07:34:22.793Z,15.70
2023-05-12T07:35:24.400Z,15.80
2023-05-12T07:36:25.999Z,15.70
2023-05-12T07:37:27.612Z,15.80
2023-05-12T07:38:29.248Z,15.90
2023-05-12T07:39:32.237Z,15.90
2023-05-12T07:40:34.492Z,16.00
2023-05-12T07:41:36.098Z,15.90
2023-05-12T07:42:37.772Z,15.80
2023-05-12T07:43:39.631Z,15.80
2023-05-12T07:44:41.334Z,15.80
2023-05-12T07:45:43.489Z,15.80
2023-05-12T07:46:45.698Z,15.90
2023-05-12T07:47:47.331Z,16.00
2023-05-12T07:48:49.139Z,16.00
2023-05-12T07:49:50.764Z,16.10
2023-05-12T07:50:52.563Z,16.30
2023-05-12T07:51:54.141Z,16.40
2023-05-12T07:52:55.748Z,16.50
2023-05-12T07:53:58.141Z,16.60
2023-05-12T07:54:59.779Z,16.70
2023-05-12T07:56:01.619Z,16.70
2023-05-12T07:57:04.155Z,16.70
2023-05-12T07:58:05.755Z,16.80
2023-05-12T07:59:08.586Z,16.80
2023-05-12T08:00:11.188Z,16.80
2023-05-12T08:01:12.915Z,16.80
2023-05-12T08:02:14.522Z,16.90
2023-05-12T08:03:16.578Z,16.90
2023-05-12T08:04:18.377Z,17.00
2023-05-12T08:05:20.691Z,17.00
2023-05-12T08:06:22.472Z,17.00
2023-05-12T08:07:24.043Z,17.10
2023-05-12T08:08:25.642Z,17.00
2023-05-12T08:09:27.254Z,17.00
2023-05-12T08:10:29.928Z,17.10
2023-05-12T08:11:31.682Z,17.10
2023-05-12T08:12:33.717Z,17.10
2023-05-12T08:13:39.588Z,17.20
2023-05-12T08:14:41.342Z,17.20
2023-05-12T08:15:42.963Z,17.30
2023-05-12T08:16:46.323Z,17.30
2023-05-12T08:17:48.022Z,17.30
2023-05-12T08:18:49.770Z,17.30
2023-05-12T08:19:51.566Z,17.30
2023-05-12T08:20:53.151Z,17.20
2023-05-12T08:21:54.880Z,17.20
2023-05-12T08:22:56.442Z,17.20
2023-05-12T08:23:58.570Z,17.10
2023-05-12T08:25:00.311Z,17.20
2023-05-12T08:26:01.976Z,17.10
2023-05-12T08:27:03.826Z,17.10
2023-05-12T08:28:05.464Z,17.10
2023-05-12T08:29:08.600Z,17.10
2023-05-12T08:30:10.919Z,17.10
2023-05-12T08:31:12.724Z,17.20
2023-05-12T08:32:15.033Z,17.30
2023-05-12T08:33:16.768Z,17.30
2023-05-12T08:34:18.445Z,17.30
2023-05-12T08:35:20.338Z,17.30
2023-05-12T08:36:22.080Z,17.40
2023-05-12T08:37:23.709Z,17.50
2023-05-12T08:38:28.272Z,17.60
2023-05-12T08:39:30.975Z,17.70
2023-05-12T08:40:44.374Z,17.80
2023-05-12T08:42:02.208Z,17.90
2023-05-12T08:43:18.220Z,17.90
2023-05-12T08:44:20.814Z,18.00
2023-05-12T08:45:25.178Z,18.00
2023-05-12T08:46:27.088Z,18.00
2023-05-12T08:47:30.073Z,18.10
2023-05-12T08:48:34.283Z,18.20
2023-05-12T08:49:36.458Z,18.30
2023-05-12T08:50:41.007Z,18.40
2023-05-12T08:51:56.832Z,18.40
2023-05-12T08:53:00.140Z,18.40
2023-05-12T08:54:04.188Z,18.60
2023-05-12T08:55:06.895Z,18.60
2023-05-12T08:57:16.157Z,18.50
2023-05-12T08:58:20.097Z,18.50
2023-05-12T08:59:25.096Z,18.50
2023-05-12T09:00:28.593Z,18.60
2023-05-12T09:01:31.332Z,18.60
2023-05-12T09:02:44.772Z,18.60
2023-05-12T09:03:53.481Z,18.60
2023-05-12T09:04:55.230Z,18.70
2023-05-12T09:06:00.673Z,18.70
2023-05-12T09:07:04.731Z,18.70
2023-05-12T09:08:07.204Z,18.70
2023-05-12T09:09:09.157Z,18.80
2023-05-12T09:10:34.335Z,18.90
2023-05-12T09:11:37.421Z,19.00
2023-05-12T09:12:39.262Z,19.10
2023-05-12T09:14:02.848Z,19.20
2023-05-12T09:15:10.421Z,19.20
2023-05-12T09:16:13.648Z,19.10
2023-05-12T09:17:15.387Z,19.30
2023-05-12T09:18:16.958Z,19.30
2023-05-12T09:19:21.662Z,19.40
2023-05-12T09:20:31.282Z,19.50
2023-05-12T09:21:34.137Z,19.60
2023-05-12T09:22:35.823Z,19.50
2023-05-12T09:23:37.527Z,19.60
2023-05-12T09:24:40.425Z,19.60
2023-05-12T09:25:42.333Z,19.60
2023-05-12T09:26:52.152Z,19.70
2023-05-12T09:27:57.350Z,19.80
2023-05-12T09:29:08.148Z,19.70
2023-05-12T09:30:10.485Z,19.90
2023-05-12T09:31:20.185Z,20.00
2023-05-12T09:32:32.817Z,20.10
2023-05-12T09:33:36.689Z,20.00
2023-05-12T09:34:41.211Z,20.00
2023-05-12T09:35:45.216Z,20.00
2023-05-12T09:36:58.989Z,20.00
2023-05-12T09:38:06.399Z,20.20
2023-05-12T09:39:10.004Z,20.40
2023-05-12T09:40:13.606Z,20.50
2023-05-12T09:41:23.014Z,20.50
2023-05-12T09:42:29.394Z,20.60
2023-05-12T09:43:31.115Z,20.70
2023-05-12T09:44:33.273Z,20.80
2023-05-12T09:45:36.404Z,20.90
2023-05-12T09:46:39.838Z,21.00
2023-05-12T09:47:41.548Z,21.10
2023-05-12T09:48:43.180Z,21.20
2023-05-12T09:49:46.503Z,21.10
2023-05-12T09:50:50.434Z,21.20
2023-05-12T09:52:02.508Z,21.20
2023-05-12T09:53:06.186Z,21.20
2023-05-12T09:54:08.121Z,21.10
2023-05-12T09:55:12.059Z,20.80
2023-05-12T09:56:14.467Z,20.90
2023-05-12T09:57:16.968Z,20.80
2023-05-12T09:58:20.226Z,20.90
2023-05-12T09:59:26.692Z,20.90
2023-05-12T10:00:41.242Z,21.20
2023-05-12T10:01:50.090Z,21.20
2023-05-12T10:02:52.070Z,21.20
2023-05-12T10:03:56.214Z,21.10
2023-05-12T10:05:03.141Z,20.80
2023-05-12T10:06:08.045Z,20.60
2023-05-12T10:07:13.104Z,20.70
2023-05-12T10:08:21.051Z,20.90
2023-05-12T10:09:31.431Z,20.90
2023-05-12T10:10:34.240Z,20.90
2023-05-12T10:11:36.473Z,20.90
2023-05-12T10:12:38.377Z,21.00
2023-05-12T10:13:40.551Z,21.10
2023-05-12T10:14:43.360Z,21.30
2023-05-12T10:15:47.518Z,21.50
2023-05-12T10:16:49.996Z,21.70
2023-05-12T10:17:55.057Z,21.80
2023-05-12T10:18:56.913Z,21.80
2023-05-12T10:19:59.573Z,22.00
2023-05-12T10:21:02.002Z,22.10
2023-05-12T10:22:05.748Z,22.10
2023-05-12T10:23:09.854Z,22.20
2023-05-12T10:24:14.268Z,22.40
2023-05-12T10:25:17.822Z,22.30
2023-05-12T10:26:20.357Z,22.40
2023-05-12T10:27:23.469Z,22.30
2023-05-12T10:28:25.405Z,22.30
2023-05-12T10:29:31.065Z,22.20
2023-05-12T10:30:33.589Z,22.30
2023-05-12T10:31:36.715Z,22.40
2023-05-12T10:32:38.372Z,22.50
2023-05-12T10:33:40.053Z,22.50
2023-05-12T10:34:42.067Z,22.60
2023-05-12T10:35:46.974Z,22.50
2023-05-12T10:36:52.108Z,22.30
2023-05-12T10:37:53.822Z,22.20
2023-05-12T10:38:56.545Z,22.30
2023-05-12T10:40:01.069Z,22.30
2023-05-12T10:41:05.643Z,22.30
2023-05-12T10:42:08.473Z,22.40
2023-05-12T10:43:23.768Z,22.50
2023-05-12T10:44:29.319Z,22.70
2023-05-12T10:45:36.615Z,22.90
2023-05-12T10:46:38.422Z,23.00
2023-05-12T10:47:40.039Z,23.20
2023-05-12T10:48:54.772Z,23.10
2023-05-12T10:49:59.817Z,23.10
2023-05-12T10:51:09.111Z,23.00
2023-05-12T10:52:19.512Z,23.00
2023-05-12T10:53:38.011Z,23.10
2023-05-12T10:54:47.618Z,23.10
2023-05-12T10:55:52.271Z,23.30
2023-05-12T10:56:59.011Z,23.20
2023-05-12T10:58:06.537Z,23.30
2023-05-12T10:59:10.222Z,23.30
2023-05-12T11:00:14.333Z,23.40
2023-05-12T11:01:25.166Z,23.40
2023-05-12T11:02:32.065Z,23.40
2023-05-12T11:03:34.876Z,23.40
2023-05-12T11:04:51.096Z,23.40
2023-05-12T11:06:05.380Z,23.30
2023-05-12T11:07:09.633Z,23.20
2023-05-12T11:08:12.197Z,23.00
2023-05-12T11:09:17.676Z,22.90
2023-05-12T11:10:20.158Z,22.90
2023-05-12T11:11:29.636Z,23.00
2023-05-12T11:12:33.072Z,23.20
2023-05-12T11:13:35.630Z,23.30
2023-05-12T11:14:38.890Z,23.40
2023-05-12T11:15:44.372Z,23.60
2023-05-12T11:16:46.107Z,23.70
2023-05-12T11:17:47.817Z,23.90
2023-05-12T11:18:51.506Z,23.90
2023-05-12T11:19:53.199Z,23.90
2023-05-12T11:20:54.767Z,24.00
2023-05-12T11:21:56.679Z,24.00
2023-05-12T11:22:58.407Z,24.00
2023-05-12T11:24:01.882Z,23.90
2023-05-12T11:25:10.630Z,23.90
2023-05-12T11:26:18.170Z,23.80
2023-05-12T11:27:22.560Z,23.60
2023-05-12T11:28:24.673Z,23.40
2023-05-12T11:29:26.476Z,23.30
2023-05-12T11:30:28.245Z,23.30
2023-05-12T11:31:29.856Z,23.10
2023-05-12T11:32:31.502Z,23.00
2023-05-12T11:33:33.136Z,23.00
2023-05-12T11:34:34.800Z,23.00
2023-05-12T11:35:36.578Z,22.90
2023-05-12T11:36:39.299Z,22.80
2023-05-12T11:37:42.345Z,22.60
2023-05-12T11:38:50.256Z,22.40
2023-05-12T11:39:53.141Z,22.10
2023-05-12T11:40:54.869Z,22.00
2023-05-12T11:42:12.694Z,22.00
2023-05-12T11:43:20.852Z,21.80
2023-05-12T11:44:24.954Z,21.70
2023-05-12T11:45:28.779Z,21.60
2023-05-12T11:46:30.849Z,21.50
2023-05-12T11:47:32.498Z,21.30
2023-05-12T11:48:34.717Z,21.30
2023-05-12T11:49:49.495Z,21.10
2023-05-12T11:50:51.290Z,21.00
2023-05-12T11:51:58.183Z,21.00
2023-05-12T11:52:59.852Z,21.00
2023-05-12T11:54:01.520Z,20.90
2023-05-12T11:55:05.972Z,20.90
2023-05-12T11:56:07.794Z,20.90
2023-05-12T11:57:09.501Z,20.80
2023-05-12T11:58:20.639Z,20.90
2023-05-12T11:59:33.876Z,20.80
2023-05-12T12:00:35.752Z,20.80
2023-05-12T12:01:45.227Z,20.70
2023-05-12T12:02:46.880Z,20.70
2023-05-12T12:03:50.751Z,20.70
2023-05-12T12:04:53.325Z,20.70
2023-05-12T12:06:03.448Z,20.60
2023-05-12T12:07:05.876Z,20.50
2023-05-12T12:08:09.029Z,20.30
2023-05-12T12:09:10.676Z,20.30
2023-05-12T12:10:13.360Z,20.30
2023-05-12T12:11:14.929Z,20.30
2023-05-12T12:12:16.584Z,20.20
2023-05-12T12:13:22.499Z,20.20
2023-05-12T12:14:24.860Z,20.20
2023-05-12T12:15:26.588Z,20.20
2023-05-12T12:16:32.019Z,20.30
2023-05-12T12:17:33.759Z,20.30
2023-05-12T12:18:35.539Z,20.40
2023-05-12T12:19:37.166Z,20.50
2023-05-12T12:20:38.867Z,20.70
2023-05-12T12:21:40.470Z,20.80
2023-05-12T12:22:42.065Z,20.90
2023-05-12T12:23:50.805Z,21.00
2023-05-12T12:24:53.640Z,21.10
2023-05-12T12:25:55.209Z,21.20
2023-05-12T12:26:56.810Z,21.20
2023-05-12T12:27:58.483Z,21.30
2023-05-12T12:29:00.030Z,21.40
2023-05-12T12:30:01.590Z,21.50
2023-05-12T12:31:03.463Z,21.70
2023-05-12T12:32:05.471Z,21.80
2023-05-12T12:33:07.145Z,21.90
2023-05-12T12:34:08.831Z,22.00
2023-05-12T12:35:11.420Z,22.10
2023-05-12T12:36:12.981Z,22.10
2023-05-12T12:37:14.689Z,22.20
2023-05-12T12:38:16.526Z,22.20
2023-05-12T12:39:19.959Z,22.20
2023-05-12T12:40:22.056Z,22.20
2023-05-12T12:41:23.748Z,22.20
2023-05-12T12:42:25.372Z,22.10
2023-05-12T12:43:27.578Z,21.90
2023-05-12T12:44:29.228Z,21.90
2023-05-12T12:45:30.808Z,21.60
2023-05-12T12:46:33.721Z,21.50
2023-05-12T12:47:35.659Z,21.50
2023-05-12T12:48:37.667Z,21.50
2023-05-12T12:49:39.589Z,21.50
2023-05-12T12:50:41.251Z,21.50
2023-05-12T12:51:46.776Z,21.50
2023-05-12T12:52:49.096Z,21.50
2023-05-12T12:53:50.762Z,21.60
2023-05-12T12:54:52.668Z,21.60
2023-05-12T12:55:54.290Z,21.50
2023-05-12T12:56:56.518Z,21.60
2023-05-12T12:57:58.409Z,21.60
2023-05-12T12:58:59.999Z,21.50
2023-05-12T13:00:02.303Z,21.50
2023-05-12T13:01:04.128Z,21.50
2023-05-12T13:02:05.842Z,21.70
2023-05-12T13:03:08.156Z,21.80
2023-05-12T13:04:10.081Z,21.80
2023-05-12T13:05:11.775Z,21.80
2023-05-12T13:06:13.366Z,21.90
2023-05-12T13:07:14.956Z,21.90
2023-05-12T13:08:17.520Z,22.00
2023-05-12T13:09:20.082Z,22.10
2023-05-12T13:10:21.850Z,22.20
2023-05-12T13:11:23.504Z,22.30
2023-05-12T13:12:25.653Z,22.40
2023-05-12T13:13:27.276Z,22.60
2023-05-12T13:14:28.926Z,22.60
2023-05-12T13:15:32.278Z,22.80
2023-05-12T13:16:33.974Z,22.90
2023-05-12T13:17:35.919Z,22.80
2023-05-12T13:18:37.630Z,22.80
2023-05-12T13:19:39.345Z,22.80
2023-05-12T13:20:41.090Z,22.70
2023-05-12T13:21:42.656Z,22.70
2023-05-12T13:22:44.532Z,22.80
2023-05-12T13:23:46.182Z,22.90
2023-05-12T13:24:47.984Z,23.10
2023-05-12T13:25:50.312Z,23.10
2023-05-12T13:26:51.910Z,23.20
2023-05-12T13:27:53.474Z,23.20
2023-05-12T13:28:55.078Z,23.20
2023-05-12T13:29:56.720Z,23.10
2023-05-12T13:30:58.369Z,22.80
2023-05-12T13:32:00.089Z,22.60